Time;durP1;ratioP1;P1;durP2;ratioP2;P2;SDS_P1;SDS_P2;PMS_P1;PMS_P2;Temp;Humidity;BMP_temperature;BMP_pressure;BME280_temperature;BME280_humidity;BME280_pressure;Samples;Min_cycle;Max_cycle;Signal;HPM_P1;HPM_P2
2021/11/01 00:01:33;;;;;;;2.10;1.58;;;;;;;9.27;97.43;97465.16;4899063;29;20028;-73
2021/11/01 00:04:02;;;;;;;2.38;2.20;;;;;;;9.27;97.34;97465.16;4899285;29;20032;-73
2021/11/01 00:06:29;;;;;;;1.10;1.10;;;;;;;9.33;96.53;97459.78;4899115;29;20044;-73
2021/11/01 00:08:54;;;;;;;2.95;1.85;;;;;;;9.32;97.16;97467.56;4899189;29;20060;-73
2021/11/01 00:11:21;;;;;;;5.93;2.55;;;;;;;9.25;97.29;97464.38;4894157;29;20113;-73
2021/11/01 00:13:46;;;;;;;2.63;2.10;;;;;;;9.26;97.48;97463.47;4880434;29;20021;-73
2021/11/01 00:16:11;;;;;;;2.45;1.92;;;;;;;9.31;97.43;97460.72;4880030;29;20452;-73
2021/11/01 00:18:37;;;;;;;1.88;1.77;;;;;;;9.17;98.04;97459.44;4880364;29;20489;-73
2021/11/01 00:21:03;;;;;;;1.83;1.73;;;;;;;9.28;98.03;97459.06;4880230;29;20530;-73
2021/11/01 00:23:29;;;;;;;1.70;1.60;;;;;;;9.31;97.32;97453.81;4880014;29;20372;-73
2021/11/01 00:25:54;;;;;;;2.47;2.25;;;;;;;9.35;96.96;97457.97;4880058;29;20035;-73
2021/11/01 00:28:20;;;;;;;3.50;2.15;;;;;;;9.23;97.77;97458.38;4879835;29;20033;-73
2021/11/01 00:30:46;;;;;;;24.40;2.63;;;;;;;9.32;97.95;97452.91;4880061;29;20025;-73
2021/11/01 00:33:13;;;;;;;2.38;2.22;;;;;;;9.47;97.55;97449.78;4879984;29;20025;-73
2021/11/01 00:35:38;;;;;;;1.98;1.77;;;;;;;9.45;96.79;97453.34;4880174;29;20025;-73
2021/11/01 00:38:04;;;;;;;5.20;2.47;;;;;;;9.64;95.77;97454.38;4879914;29;20036;-73
2021/11/01 00:40:30;;;;;;;1.85;1.63;;;;;;;9.41;96.58;97457.75;4879993;29;20029;-73
2021/11/01 00:42:56;;;;;;;4.65;2.40;;;;;;;9.31;97.26;97448.63;4887594;29;20116;-73
2021/11/01 00:45:21;;;;;;;2.03;1.88;;;;;;;9.31;97.49;97455.56;4895163;29;20036;-73
2021/11/01 00:47:47;;;;;;;2.25;1.75;;;;;;;9.26;98.06;97448.78;4898414;29;20088;-73
2021/11/01 00:50:13;;;;;;;3.30;1.70;;;;;;;9.31;97.79;97450.38;4898470;29;20024;-73
2021/11/01 00:52:39;;;;;;;2.25;2.00;;;;;;;9.32;97.34;97447.75;4898187;29;20028;-73
2021/11/01 00:55:10;;;;;;;2.05;1.90;;;;;;;9.40;97.28;97443.16;4898718;29;20031;-73
2021/11/01 00:57:35;;;;;;;1.30;1.25;;;;;;;9.44;96.55;97433.56;4898262;29;20037;-73
2021/11/01 05:15:49;;;;;;;0.30;0.30;;;;;;;9.64;100.00;97681.13;5706384;23;20140;-73
2021/11/01 05:18:21;;;;;;;9.50;0.80;;;;;;;9.58;100.00;97686.50;4879357;29;20037;-73
2021/11/01 05:26:04;;;;;;;0.40;0.40;;;;;;;9.46;100.00;97680.78;4879242;29;20025;-73
2021/11/01 05:28:48;;;;;;;0.50;0.50;;;;;;;9.50;100.00;97679.81;4879555;29;20452;-72
2021/11/01 05:31:23;;;;;;;0.60;0.60;;;;;;;9.43;100.00;97688.66;4878980;29;20040;-72
2021/11/01 05:34:09;;;;;;;0.30;0.30;;;;;;;9.45;100.00;97686.03;4879073;29;20025;-72
2021/11/01 05:36:35;;;;;;;0.85;0.40;;;;;;;9.46;100.00;97688.53;4878846;29;20035;-73
2021/11/01 05:39:01;;;;;;;2.50;1.13;;;;;;;9.53;100.00;97682.31;4878907;29;20550;-72
2021/11/01 05:41:26;;;;;;;0.40;0.40;;;;;;;9.44;100.00;97690.34;4879292;29;20061;-72
2021/11/01 05:43:52;;;;;;;0.40;0.40;;;;;;;9.43;100.00;97693.84;4889670;29;20394;-72
2021/11/01 05:46:17;;;;;;;0.30;0.30;;;;;;;9.48;100.00;97696.28;4897469;29;20032;-73
2021/11/01 05:48:51;;;;;;;0.43;0.43;;;;;;;9.46;100.00;97693.72;4896234;29;20021;-73
2021/11/01 05:51:19;;;;;;;0.40;0.40;;;;;;;9.41;100.00;97684.41;4897209;29;20044;-73
2021/11/01 05:53:49;;;;;;;0.38;0.38;;;;;;;9.44;100.00;97685.19;4897368;29;20103;-73
2021/11/01 06:01:40;;;;;;;0.52;0.52;;;;;;;9.42;100.00;97692.13;4897214;29;20043;-73
2021/11/01 06:06:59;;;;;;;0.82;0.82;;;;;;;9.50;100.00;97686.72;4897286;29;20032;-73
2021/11/01 06:14:37;;;;;;;1.73;0.85;;;;;;;9.80;100.00;97692.66;4889511;29;20119;-73
2021/11/01 06:17:02;;;;;;;0.55;0.55;;;;;;;9.70;100.00;97691.25;4896921;29;20123;-73
2021/11/01 06:19:28;;;;;;;0.70;0.70;;;;;;;9.53;100.00;97690.06;4897037;29;20120;-73
2021/11/01 06:21:53;;;;;;;0.47;0.47;;;;;;;9.72;100.00;97685.16;4896847;29;20028;-73
2021/11/01 06:24:43;;;;;;;1.80;0.60;;;;;;;9.52;100.00;97690.97;4896921;29;20029;-73
2021/11/01 06:27:09;;;;;;;0.50;0.50;;;;;;;9.46;100.00;97693.72;4896796;29;20402;-74
2021/11/01 06:29:49;;;;;;;0.40;0.40;;;;;;;9.60;100.00;97700.22;4896948;29;20056;-74
2021/11/01 06:32:41;;;;;;;0.63;0.63;;;;;;;9.65;100.00;97693.16;4896829;29;20035;-73
2021/11/01 06:56:28;;;;;;;0.60;0.60;;;;;;;9.37;100.00;97714.69;4896871;29;20020;-73
2021/11/01 07:15:21;;;;;;;0.30;0.30;;;;;;;9.35;100.00;97721.66;4892443;29;20080;-73
2021/11/01 07:20:28;;;;;;;0.50;0.50;;;;;;;9.38;100.00;97716.41;4896642;29;20127;-73
2021/11/01 08:39:10;;;;;;;0.40;0.40;;;;;;;9.20;100.00;97779.81;4898934;29;20474;-74
2021/11/01 08:44:32;;;;;;;0.80;0.80;;;;;;;9.27;100.00;97775.31;4890735;29;20107;-73
2021/11/01 09:21:28;;;;;;;1.55;0.73;;;;;;;9.68;100.00;97768.06;4897883;29;20025;-74
2021/11/01 09:26:37;;;;;;;0.55;0.50;;;;;;;9.57;100.00;97750.28;4897914;29;20031;-74
2021/11/01 09:29:20;;;;;;;0.50;0.50;;;;;;;9.63;99.18;97736.34;4897703;29;20017;-74
2021/11/01 09:42:24;;;;;;;0.45;0.45;;;;;;;9.47;100.00;97762.63;4892191;29;20043;-74
2021/11/01 09:44:51;;;;;;;0.30;0.30;;;;;;;9.42;100.00;97766.25;4889859;29;20115;-74
2021/11/01 09:47:17;;;;;;;0.30;0.30;;;;;;;9.51;99.43;97761.66;4897354;29;20036;-73
2021/11/01 09:49:42;;;;;;;0.30;0.30;;;;;;;9.33;100.00;97762.22;4897399;29;20116;-73
2021/11/01 09:52:09;;;;;;;0.63;0.63;;;;;;;9.56;99.39;97763.25;4897334;29;20107;-74
2021/11/01 09:54:37;;;;;;;1.25;0.50;;;;;;;9.81;100.00;97771.94;4897360;29;20039;-74
2021/11/01 09:57:20;;;;;;;0.30;0.30;;;;;;;9.77;100.00;97765.19;4897179;29;20020;-74
2021/11/01 09:59:46;;;;;;;0.40;0.40;;;;;;;9.71;100.00;97760.19;4896920;29;20023;-74
2021/11/01 10:02:14;;;;;;;0.60;0.60;;;;;;;9.88;100.00;97752.75;4897243;29;20107;-74
2021/11/01 10:04:46;;;;;;;0.40;0.40;;;;;;;9.78;100.00;97769.47;4895973;29;20444;-74
2021/11/01 10:07:22;;;;;;;0.47;0.47;;;;;;;9.55;97.82;97769.31;4897117;29;20071;-74
2021/11/01 10:09:54;;;;;;;0.30;0.30;;;;;;;9.40;97.23;97771.47;4897182;29;20032;-74
2021/11/01 10:12:21;;;;;;;0.50;0.50;;;;;;;9.45;100.00;97772.19;4891775;29;20028;-74
2021/11/01 10:14:49;;;;;;;0.40;0.40;;;;;;;9.38;100.00;97762.94;4887967;29;20088;-73
2021/11/01 10:17:36;;;;;;;0.47;0.47;;;;;;;9.31;98.77;97763.97;4895737;29;20092;-73
2021/11/01 10:20:17;;;;;;;0.45;0.45;;;;;;;9.42;100.00;97774.84;4896919;29;20092;-74
2021/11/01 10:22:43;;;;;;;0.40;0.40;;;;;;;9.58;100.00;97779.59;4896950;29;20029;-74
2021/11/01 10:25:15;;;;;;;0.60;0.52;;;;;;;9.56;100.00;97773.59;4896905;29;20076;-74
2021/11/01 10:27:43;;;;;;;0.60;0.60;;;;;;;9.62;100.00;97770.81;4896997;29;20025;-74
2021/11/01 10:30:11;;;;;;;0.80;0.80;;;;;;;9.59;100.00;97770.94;4896808;29;20097;-74
2021/11/01 10:32:46;;;;;;;0.55;0.55;;;;;;;9.63;100.00;97764.78;4896783;29;20084;-74
2021/11/01 10:35:31;;;;;;;1.15;1.08;;;;;;;9.81;100.00;97751.25;4896799;29;20040;-74
2021/11/01 10:38:31;;;;;;;0.50;0.50;;;;;;;9.77;97.36;97739.34;4896911;29;20080;-74
2021/11/01 10:43:43;;;;;;;0.40;0.40;;;;;;;9.61;98.81;97743.28;4886292;29;20033;-74
2021/11/01 11:13:46;;;;;;;0.40;0.40;;;;;;;10.00;96.11;97710.94;4889943;29;20116;-73
2021/11/01 11:16:22;;;;;;;0.50;0.50;;;;;;;9.86;94.44;97720.91;4900015;29;20064;-72
2021/11/01 11:48:31;;;;;;;0.57;0.57;;;;;;;10.17;94.47;97691.44;4864502;29;20041;-69
2021/11/01 11:51:08;;;;;;;0.55;0.55;;;;;;;10.29;91.08;97685.88;4899577;29;20493;-69
2021/11/01 11:53:35;;;;;;;0.80;0.80;;;;;;;10.37;93.60;97695.97;4899402;29;20470;-70
2021/11/01 11:56:11;;;;;;;1.30;0.43;;;;;;;10.18;91.17;97696.56;4899874;29;20032;-78
2021/11/01 11:58:43;;;;;;;0.45;0.45;;;;;;;10.20;93.15;97709.44;4900069;29;20027;-78
2021/11/01 12:01:33;;;;;;;0.45;0.45;;;;;;;10.11;93.04;97707.19;4899769;29;20072;-77
2021/11/01 12:03:59;;;;;;;0.65;0.65;;;;;;;9.79;97.26;97696.97;4899051;29;20509;-77
2021/11/01 12:07:06;;;;;;;1.00;0.70;;;;;;;9.88;97.06;97695.84;4899225;29;20212;-75
2021/11/01 12:09:47;;;;;;;0.30;0.30;;;;;;;9.84;97.04;97694.25;4896206;29;20160;-77
2021/11/01 12:17:18;;;;;;;0.40;0.40;;;;;;;9.99;97.41;97677.38;4899499;29;20486;-78
2021/11/01 12:19:43;;;;;;;0.43;0.43;;;;;;;10.08;97.50;97679.66;4898997;29;20032;-77
2021/11/01 12:22:13;;;;;;;0.75;0.75;;;;;;;10.09;96.98;97689.09;4898873;29;20099;-78
2021/11/01 12:24:45;;;;;;;;;;;;;;;10.10;95.35;97684.78;4899366;29;20033;-78
2021/11/01 12:27:11;;;;;;;0.88;0.88;;;;;;;10.04;96.31;97675.47;4892241;29;19915;-78
2021/11/01 12:29:38;;;;;;;0.73;0.40;;;;;;;10.05;95.94;97672.81;4881826;29;20093;-78
2021/11/01 12:32:08;;;;;;;0.65;0.65;;;;;;;10.01;95.44;97681.63;4879881;29;20044;-78
2021/11/01 12:34:44;;;;;;;0.70;0.70;;;;;;;10.11;97.79;97676.13;4880865;29;20036;-78
2021/11/01 12:37:18;;;;;;;0.40;0.40;;;;;;;10.24;96.35;97669.66;4880044;29;20033;-78
2021/11/01 12:39:49;;;;;;;0.35;0.35;;;;;;;10.17;95.53;97668.16;4880832;29;20036;-78
2021/11/01 12:58:43;;;;;;;2.58;0.73;;;;;;;10.48;93.77;97637.72;4890162;29;20051;-76
2021/11/01 13:01:11;;;;;;;0.50;0.50;;;;;;;10.45;93.82;97629.22;4897672;29;20020;-75
2021/11/01 13:03:38;;;;;;;0.40;0.40;;;;;;;10.44;92.84;97618.03;4898149;29;20037;-75
2021/11/01 13:06:17;;;;;;;1.20;1.10;;;;;;;10.54;92.40;97615.94;4897976;29;20116;-75
2021/11/01 13:08:47;;;;;;;0.65;0.52;;;;;;;10.42;92.14;97606.88;4898150;29;20075;-77
2021/11/01 13:19:20;;;;;;;0.88;0.43;;;;;;;10.32;89.82;97612.44;4898388;29;20406;-77
2021/11/01 13:21:57;;;;;;;0.40;0.40;;;;;;;10.18;89.65;97599.94;4898173;29;20497;-78
2021/11/01 13:24:44;;;;;;;1.50;1.40;;;;;;;10.22;90.94;97606.72;4898390;29;20040;-77
2021/11/01 13:38:33;;;;;;;1.25;0.93;;;;;;;10.14;100.00;97614.72;4860750;29;20502;-77
2021/11/01 13:40:58;;;;;;;0.50;0.50;;;;;;;10.08;96.75;97616.69;4862140;29;20033;-75
2021/11/01 13:43:29;;;;;;;0.55;0.55;;;;;;;10.17;97.88;97613.78;4886281;29;20504;-75
2021/11/01 13:45:58;;;;;;;0.35;0.35;;;;;;;10.23;97.64;97613.56;4897502;29;20037;-75
2021/11/01 13:48:27;;;;;;;0.80;0.70;;;;;;;10.32;97.13;97617.63;4897073;29;20493;-75
2021/11/01 13:51:08;;;;;;;1.27;0.98;;;;;;;10.14;99.70;97619.06;4897354;29;20092;-76
2021/11/01 13:53:39;;;;;;;7.15;0.65;;;;;;;10.14;99.82;97608.72;4897378;29;20029;-75
2021/11/01 13:56:35;;;;;;;1.50;0.95;;;;;;;10.05;99.10;97609.88;4894164;29;20076;-75
2021/11/01 13:59:09;;;;;;;0.77;0.77;;;;;;;9.95;100.00;97604.16;4884708;29;20040;-75
2021/11/01 14:02:00;;;;;;;1.55;1.15;;;;;;;10.04;100.00;97608.19;4897259;29;20390;-74
2021/11/01 14:15:43;;;;;;;1.13;1.08;;;;;;;10.25;99.20;97580.72;4892936;29;20033;-72
2021/11/01 14:18:33;;;;;;;1.10;1.10;;;;;;;10.51;98.93;97580.63;4896806;29;20553;-72
2021/11/01 15:05:18;;;;;;;1.00;1.00;;;;;;;9.91;98.62;97565.53;4900614;29;20056;-68
2021/11/01 15:10:09;;;;;;;0.60;0.60;;;;;;;9.92;96.69;97554.28;4900249;29;20028;-69
2021/11/01 15:20:34;;;;;;;0.50;0.50;;;;;;;10.12;97.49;97569.97;4900435;29;20119;-73
2021/11/01 15:36:28;;;;;;;0.30;0.30;;;;;;;10.32;85.88;97560.66;4899987;29;20088;-74
2021/11/01 15:39:04;;;;;;;0.43;0.43;;;;;;;10.30;85.62;97558.13;4898904;29;20401;-78
2021/11/01 16:19:32;;;;;;;0.50;0.50;;;;;;;9.67;88.62;97568.06;4899050;29;20028;-73
2021/11/01 16:21:57;;;;;;;2.85;1.42;;;;;;;9.64;88.70;97572.50;4898924;29;20080;-73
2021/11/01 16:24:23;;;;;;;1.45;1.30;;;;;;;9.65;88.17;97571.59;4898885;29;20624;-80
2021/11/01 16:26:49;;;;;;;1.10;1.10;;;;;;;9.70;88.96;97570.53;4892645;29;20028;-74
2021/11/01 16:29:18;;;;;;;0.52;0.52;;;;;;;9.73;88.42;97573.03;4894377;29;20033;-74
2021/11/01 16:34:24;;;;;;;2.67;2.08;;;;;;;9.85;87.50;97582.09;4899051;29;20552;-74
2021/11/01 16:39:24;;;;;;;1.10;0.98;;;;;;;9.98;86.92;97578.19;4898996;29;20123;-73
2021/11/01 16:41:49;;;;;;;0.85;0.85;;;;;;;9.79;86.00;97578.00;4893155;29;20449;-73
2021/11/01 16:44:26;;;;;;;0.40;0.40;;;;;;;9.81;85.84;97572.75;4890829;29;20060;-73
2021/11/01 16:46:52;;;;;;;2.85;1.20;;;;;;;9.83;85.98;97568.38;4898544;29;20379;-73
2021/11/01 16:49:20;;;;;;;0.40;0.40;;;;;;;9.84;85.24;97580.41;4898561;29;20466;-73
2021/11/01 16:51:47;;;;;;;0.32;0.32;;;;;;;9.97;84.07;97580.84;4898117;29;20032;-73
2021/11/01 16:54:16;;;;;;;1.15;0.60;;;;;;;9.90;85.15;97575.03;4898519;29;20037;-73
2021/11/01 16:59:45;;;;;;;0.50;0.50;;;;;;;9.69;93.20;97586.13;4895890;29;20032;-73
2021/11/01 17:04:46;;;;;;;1.83;1.73;;;;;;;9.51;94.57;97588.41;4898568;29;20060;-73
2021/11/01 17:07:21;;;;;;;5.55;1.23;;;;;;;9.49;95.83;97585.03;4896952;29;20051;-73
2021/11/01 17:36:50;;;;;;;1.30;1.15;;;;;;;9.17;100.00;97586.06;4879357;29;20036;-77
2021/11/01 18:37:38;;;;;;;2.33;1.77;;;;;;;8.53;100.00;97574.28;4878455;29;20048;-79
2021/11/01 18:40:14;;;;;;;1.33;1.23;;;;;;;8.52;100.00;97562.25;4877145;29;20029;-79
2021/11/01 18:43:03;;;;;;;3.22;2.92;;;;;;;8.35;100.00;97563.53;4885545;29;20044;-79
2021/11/01 18:46:31;;;;;;;1.38;1.27;;;;;;;8.47;100.00;97555.50;4881034;29;20033;-79
2021/11/01 18:51:06;;;;;;;1.38;1.27;;;;;;;8.32;100.00;97549.91;4877361;29;20116;-79
2021/11/01 18:53:44;;;;;;;1.45;1.00;;;;;;;8.38;100.00;97550.59;4886276;29;20032;-79
2021/11/01 18:56:11;;;;;;;2.45;1.67;;;;;;;8.25;100.00;97547.47;4896693;29;20091;-79
2021/11/01 18:58:41;;;;;;;1.50;1.33;;;;;;;8.33;100.00;97557.59;4896352;29;20430;-71
2021/11/01 19:01:12;;;;;;;2.47;1.77;;;;;;;8.38;100.00;97555.75;4896733;29;20021;-79
2021/11/01 19:03:54;;;;;;;1.75;1.67;;;;;;;8.42;100.00;97557.38;4896198;29;20489;-79
2021/11/01 19:09:10;;;;;;;2.92;1.00;;;;;;;8.45;100.00;97562.41;4896071;29;20032;-79
2021/11/01 21:24:30;;;;;;;1.00;1.00;;;;;;;7.02;100.00;97587.63;4899042;29;20119;-79
2021/11/01 21:26:50;;;;;;;1.85;1.48;;;;;;;6.17;100.00;97605.72;4879042;29;20048;-71
2021/11/01 21:29:15;;;;;;;5.90;1.95;;;;;;;6.13;100.00;97604.09;4879090;29;20041;-71
2021/11/01 21:31:40;;;;;;;1.85;1.45;;;;;;;6.04;100.00;97605.09;4878856;29;20040;-71
2021/11/01 21:34:07;;;;;;;1.98;1.25;;;;;;;6.05;100.00;97600.84;4878903;29;20039;-71
2021/11/01 21:36:34;;;;;;;0.65;0.65;;;;;;;5.96;100.00;97599.28;4879249;29;20085;-71
2021/11/01 21:39:00;;;;;;;1.20;1.10;;;;;;;6.04;100.00;97604.25;4878787;29;20479;-71
2021/11/01 21:41:27;;;;;;;0.75;0.75;;;;;;;5.98;100.00;97599.25;4878891;29;20053;-71
2021/11/01 21:43:53;;;;;;;3.88;1.30;;;;;;;5.91;100.00;97594.22;4889645;29;20032;-71
2021/11/01 21:46:18;;;;;;;2.70;2.53;;;;;;;6.00;100.00;97592.38;4897637;29;20032;-71
2021/11/01 21:48:44;;;;;;;1.60;1.52;;;;;;;5.71;100.00;97588.56;4897331;29;20107;-71
2021/11/01 21:51:09;;;;;;;1.02;1.02;;;;;;;5.73;100.00;97589.38;4895980;29;20060;-71
2021/11/01 21:53:36;;;;;;;0.60;0.60;;;;;;;5.60;100.00;97582.75;4887584;29;20085;-71
2021/11/01 21:56:03;;;;;;;0.63;0.63;;;;;;;5.65;100.00;97583.53;4896878;29;20033;-71
2021/11/01 21:58:47;;;;;;;0.80;0.80;;;;;;;5.66;100.00;97582.66;4897229;29;20056;-71
2021/11/01 22:09:41;;;;;;;1.05;0.75;;;;;;;5.66;100.00;97574.97;4897374;29;20080;-71
2021/11/01 22:17:52;;;;;;;0.88;0.88;;;;;;;5.39;100.00;97555.72;4897158;29;20103;-69
2021/11/01 22:20:24;;;;;;;0.47;0.47;;;;;;;5.43;100.00;97548.81;4897091;29;20054;-78
2021/11/01 22:23:13;;;;;;;0.90;0.90;;;;;;;5.39;100.00;97554.00;4890286;29;20021;-78
2021/11/01 22:25:44;;;;;;;0.75;0.75;;;;;;;5.40;100.00;97550.56;4895367;29;20036;-77
2021/11/01 22:39:14;;;;;;;0.82;0.70;;;;;;;5.21;100.00;97545.75;4896925;29;20446;-78
2021/11/01 22:41:52;;;;;;;0.70;0.70;;;;;;;5.13;100.00;97548.47;4891039;29;20029;-78
2021/11/01 22:57:26;;;;;;;1.13;0.95;;;;;;;4.69;100.00;97549.13;4896626;29;20450;-78
2021/11/01 22:59:52;;;;;;;2.22;1.95;;;;;;;4.53;100.00;97543.38;4896682;29;20032;-78
2021/11/01 23:02:18;;;;;;;0.82;0.80;;;;;;;4.33;100.00;97544.50;4896424;29;20037;-77
2021/11/01 23:05:07;;;;;;;0.82;0.82;;;;;;;4.30;100.00;97541.97;4896724;29;20028;-77
2021/11/01 23:32:07;;;;;;;3.08;1.83;;;;;;;4.63;100.00;97514.16;4900248;29;20359;-77
2021/11/01 23:34:33;;;;;;;1.55;1.45;;;;;;;4.61;100.00;97510.78;4898787;29;20468;-77
2021/11/01 23:36:58;;;;;;;2.40;2.10;;;;;;;4.64;100.00;97500.44;4900016;29;20031;-77
2021/11/01 23:39:24;;;;;;;2.05;1.60;;;;;;;4.63;100.00;97498.75;4899814;29;20029;-77
2021/11/01 23:41:49;;;;;;;1.35;1.33;;;;;;;4.65;100.00;97507.28;4902842;29;20028;-77
2021/11/01 23:44:19;;;;;;;2.17;1.80;;;;;;;4.62;100.00;97491.94;4910677;29;20452;-77
2021/11/01 23:46:44;;;;;;;;;;;;;;;4.64;100.00;97498.75;4919262;29;20028;-77
2021/11/01 23:49:10;;;;;;;1.77;1.65;;;;;;;4.70;100.00;97495.25;4918436;29;19969;-77
2021/11/01 23:51:37;;;;;;;3.00;1.52;;;;;;;4.80;100.00;97486.53;4918369;29;20028;-77
2021/11/01 23:56:47;;;;;;;1.55;1.45;;;;;;;4.92;100.00;97484.63;4918415;29;20028;-77
2021/11/01 23:59:12;;;;;;;1.30;1.02;;;;;;;4.84;100.00;97488.19;4918413;29;20552;-77
